Time;durP1;ratioP1;P1;durP2;ratioP2;P2;SDS_P1;SDS_P2;PMS_P1;PMS_P2;Temp;Humidity;BMP_temperature;BMP_pressure;BME280_temperature;BME280_humidity;BME280_pressure;Samples;Min_cycle;Max_cycle;Signal;HPM_P1;HPM_P2
2023/06/23 00:00:28;;;;;;;16.58;10.13;;;;;;;19.65;96.17;95128.16;5011948;28;20165;-82
2023/06/23 00:02:54;;;;;;;20.35;9.98;;;;;;;19.85;95.89;95174.50;5011416;28;20198;-82
2023/06/23 00:05:20;;;;;;;14.50;10.07;;;;;;;19.79;95.50;95164.06;5011607;28;20180;-82
2023/06/23 00:07:46;;;;;;;21.80;9.82;;;;;;;19.44;95.28;95121.91;5011395;28;20626;-82
2023/06/23 00:10:11;;;;;;;12.65;9.18;;;;;;;19.65;96.09;95154.88;5011593;28;20204;-82
2023/06/23 00:12:42;;;;;;;14.07;9.40;;;;;;;19.62;96.17;95158.91;5011739;28;20169;-82
2023/06/23 00:15:10;;;;;;;13.70;7.82;;;;;;;19.25;96.28;95096.69;5011873;28;20157;-82
2023/06/23 00:17:39;;;;;;;11.40;7.85;;;;;;;19.66;95.73;95162.63;5012118;28;20535;-82
2023/06/23 00:20:14;;;;;;;11.65;7.85;;;;;;;19.65;95.59;95160.22;5011869;28;20172;-82
2023/06/23 00:22:41;;;;;;;11.52;8.05;;;;;;;19.62;95.91;95160.75;5012109;28;20183;-82
2023/06/23 00:25:11;;;;;;;12.05;7.60;;;;;;;19.55;95.58;95156.44;5011859;28;20161;-82
2023/06/23 00:27:41;;;;;;;16.90;8.05;;;;;;;19.54;95.25;95151.38;5011808;28;20176;-82
2023/06/23 00:30:07;;;;;;;12.70;7.53;;;;;;;19.22;95.32;95106.81;5012210;28;20176;-82
2023/06/23 00:32:33;;;;;;;10.57;7.45;;;;;;;19.53;95.69;95160.44;5008977;28;20641;-82
2023/06/23 00:34:59;;;;;;;12.68;7.55;;;;;;;19.54;95.97;95159.38;5011869;28;20176;-82
2023/06/23 00:37:25;;;;;;;11.65;7.75;;;;;;;19.47;95.92;95156.09;5014845;28;20176;-81
2023/06/23 00:39:51;;;;;;;12.38;7.55;;;;;;;19.44;96.12;95149.41;5014761;28;20204;-82
2023/06/23 00:42:16;;;;;;;13.90;7.65;;;;;;;19.53;95.65;95157.78;5014728;28;20224;-82
2023/06/23 00:44:42;;;;;;;13.27;7.53;;;;;;;19.50;95.93;95159.09;5015258;28;20176;-82
2023/06/23 00:47:08;;;;;;;10.52;7.65;;;;;;;19.26;96.05;95120.47;5015239;28;20161;-82
2023/06/23 00:49:35;;;;;;;9.88;7.70;;;;;;;19.47;95.74;95158.75;5013831;28;20322;-82
2023/06/23 00:52:04;;;;;;;12.63;8.10;;;;;;;19.18;95.61;95111.09;5015356;28;20145;-82
2023/06/23 00:54:32;;;;;;;12.82;8.05;;;;;;;19.31;96.00;95127.69;5013580;28;20259;-82
2023/06/23 00:56:58;;;;;;;17.23;8.65;;;;;;;19.47;96.05;95159.59;5014975;28;20159;-82
2023/06/23 00:59:28;;;;;;;15.95;8.30;;;;;;;19.40;95.75;95148.31;5015271;28;20157;-82
2023/06/23 01:01:56;;;;;;;13.25;8.00;;;;;;;19.08;96.00;95105.69;5015087;28;20233;-82
2023/06/23 01:04:22;;;;;;;10.70;7.88;;;;;;;19.13;95.91;95115.56;5014975;28;20157;-82
2023/06/23 01:07:04;;;;;;;23.42;8.60;;;;;;;19.17;96.14;95117.47;5014291;28;20512;-82
2023/06/23 01:09:49;;;;;;;11.50;7.90;;;;;;;19.42;96.11;95153.41;5014517;28;20558;-82
2023/06/23 01:12:23;;;;;;;12.23;8.73;;;;;;;19.35;96.11;95152.81;5012724;28;20173;-82
2023/06/23 01:14:54;;;;;;;14.20;8.55;;;;;;;19.39;96.29;95164.59;5014081;28;20176;-82
2023/06/23 01:17:28;;;;;;;11.52;7.82;;;;;;;19.41;96.23;95157.94;5029126;28;20255;-82
2023/06/23 01:20:17;;;;;;;10.60;8.10;;;;;;;19.36;95.85;95154.44;5012913;28;20601;-82
2023/06/23 01:22:52;;;;;;;15.85;8.50;;;;;;;19.33;95.40;95157.63;5014590;28;20696;-82
2023/06/23 01:25:53;;;;;;;17.15;10.43;;;;;;;19.26;95.69;95159.72;5014575;28;20163;-82
2023/06/23 01:28:18;;;;;;;21.88;11.90;;;;;;;19.16;96.44;95147.09;5014765;28;20574;-82
2023/06/23 01:30:47;;;;;;;22.90;11.63;;;;;;;19.01;97.62;95144.34;5014163;28;20161;-82
2023/06/23 01:33:20;;;;;;;21.67;11.80;;;;;;;18.87;98.28;95114.59;5014226;28;20172;-82
2023/06/23 01:35:56;;;;;;;18.83;10.52;;;;;;;18.97;97.95;95136.03;5014327;28;20962;-83
2023/06/23 01:38:32;;;;;;;19.98;10.60;;;;;;;18.83;97.79;95116.19;5014019;28;20210;-82
2023/06/23 01:41:00;;;;;;;20.75;9.32;;;;;;;18.78;98.13;95098.25;5014663;28;20187;-83
2023/06/23 01:43:29;;;;;;;16.60;9.45;;;;;;;19.07;97.83;95149.44;5014271;28;20157;-83
2023/06/23 01:46:08;;;;;;;23.10;10.65;;;;;;;18.86;97.39;95112.97;5013572;28;20179;-83
2023/06/23 01:48:36;;;;;;;19.98;10.30;;;;;;;19.05;97.67;95148.09;5013745;28;20614;-83
2023/06/23 01:51:05;;;;;;;15.80;10.02;;;;;;;19.09;97.32;95151.84;5013831;28;20183;-83
2023/06/23 01:53:32;;;;;;;18.10;10.15;;;;;;;19.05;97.60;95143.56;5013817;28;20229;-83
2023/06/23 01:56:01;;;;;;;23.98;9.82;;;;;;;19.06;97.15;95141.69;5013875;28;20180;-82
2023/06/23 01:58:28;;;;;;;14.30;8.95;;;;;;;19.07;97.16;95144.09;5013270;28;20169;-82
2023/06/23 02:00:55;;;;;;;21.70;10.27;;;;;;;18.78;97.55;95118.78;5012990;28;20661;-82
2023/06/23 02:03:22;;;;;;;17.73;11.18;;;;;;;18.79;97.86;95115.06;5013233;28;20176;-82
2023/06/23 02:05:50;;;;;;;20.35;10.60;;;;;;;19.06;97.92;95160.38;5013395;28;20175;-82
2023/06/23 02:08:16;;;;;;;26.38;12.43;;;;;;;19.02;97.65;95157.44;5011823;28;20177;-83
2023/06/23 02:10:42;;;;;;;26.45;11.65;;;;;;;18.92;98.23;95146.66;5012987;28;20732;-82
2023/06/23 02:13:09;;;;;;;22.20;11.63;;;;;;;18.95;98.69;95156.81;5013024;28;20180;-82
2023/06/23 02:15:36;;;;;;;24.63;12.90;;;;;;;18.79;98.73;95128.41;5013296;28;20669;-81
2023/06/23 02:18:02;;;;;;;28.45;12.70;;;;;;;18.89;98.70;95139.16;5013757;28;20828;-81
2023/06/23 02:20:28;;;;;;;24.20;13.60;;;;;;;18.92;98.52;95156.53;5012896;28;20180;-81
2023/06/23 02:22:56;;;;;;;22.23;13.35;;;;;;;18.60;98.83;95109.31;5012742;28;20192;-81
2023/06/23 02:25:22;;;;;;;29.85;12.75;;;;;;;18.78;99.23;95138.28;5012750;28;20204;-81
2023/06/23 02:27:48;;;;;;;23.30;11.93;;;;;;;18.67;99.17;95125.94;5012938;28;20680;-82
2023/06/23 02:30:17;;;;;;;23.52;12.30;;;;;;;18.89;99.10;95157.03;5013246;28;20560;-82
2023/06/23 02:32:44;;;;;;;18.83;12.23;;;;;;;18.93;99.00;95150.94;5013190;28;20180;-82
2023/06/23 02:35:12;;;;;;;21.48;14.15;;;;;;;18.77;98.51;95127.84;5013175;28;20596;-82
2023/06/23 02:37:41;;;;;;;24.38;14.57;;;;;;;18.92;98.38;95157.34;5013093;28;20173;-82
2023/06/23 02:40:16;;;;;;;35.22;16.23;;;;;;;18.93;97.96;95163.47;5012951;28;20558;-81
2023/06/23 02:42:59;;;;;;;24.10;17.42;;;;;;;18.93;98.06;95163.47;5012454;28;20696;-81
2023/06/23 02:45:38;;;;;;;22.77;15.82;;;;;;;18.74;97.91;95137.19;5012798;28;20260;-81
2023/06/23 02:48:09;;;;;;;26.88;16.10;;;;;;;18.89;97.58;95155.16;5012674;28;20203;-81
2023/06/23 02:50:36;;;;;;;28.65;17.95;;;;;;;18.91;97.25;95162.94;5013210;28;20157;-81
2023/06/23 02:53:10;;;;;;;27.75;17.58;;;;;;;18.57;97.66;95112.50;5012648;28;20164;-81
2023/06/23 02:55:40;;;;;;;28.40;16.83;;;;;;;18.80;97.93;95148.69;5012581;28;20220;-81
2023/06/23 02:58:12;;;;;;;26.15;16.95;;;;;;;18.78;97.59;95138.28;5011945;28;20168;-80
2023/06/23 03:00:38;;;;;;;24.75;16.27;;;;;;;18.47;98.19;95102.53;5012008;28;20180;-80
2023/06/23 03:03:08;;;;;;;23.40;15.68;;;;;;;18.84;98.07;95144.47;5012024;28;20189;-80
2023/06/23 03:05:33;;;;;;;24.05;14.55;;;;;;;18.86;98.61;95145.00;5012421;28;20173;-80
2023/06/23 03:08:00;;;;;;;25.80;15.77;;;;;;;18.58;98.40;95092.78;5012682;28;20560;-80
2023/06/23 03:10:27;;;;;;;20.30;14.13;;;;;;;18.88;98.28;95142.88;5012938;28;20172;-80
2023/06/23 03:12:53;;;;;;;21.10;14.57;;;;;;;18.87;98.15;95145.81;5012335;28;20168;-80
2023/06/23 03:15:18;;;;;;;21.83;14.00;;;;;;;18.84;98.24;95142.63;5011701;28;20203;-80
2023/06/23 03:17:46;;;;;;;29.80;16.52;;;;;;;18.91;98.35;95144.25;5010544;28;20173;-81
2023/06/23 03:20:22;;;;;;;19.05;14.43;;;;;;;18.93;98.14;95148.28;5011637;28;20731;-81
2023/06/23 03:22:52;;;;;;;26.08;16.52;;;;;;;18.97;98.53;95140.56;5008279;28;20191;-81
2023/06/23 03:25:25;;;;;;;17.77;13.40;;;;;;;19.02;98.76;95146.75;5012702;28;20187;-82
2023/06/23 03:27:53;;;;;;;17.77;14.35;;;;;;;19.10;98.35;95143.59;5011886;28;20234;-80
2023/06/23 03:30:31;;;;;;;21.35;14.45;;;;;;;19.11;98.33;95136.41;5011912;28;20266;-80
2023/06/23 03:33:01;;;;;;;19.30;13.95;;;;;;;19.33;97.54;95153.09;5011352;28;20164;-83
2023/06/23 03:35:32;;;;;;;22.83;13.80;;;;;;;19.13;96.69;95105.69;5011078;28;20631;-82
2023/06/23 03:38:02;;;;;;;23.70;12.68;;;;;;;19.47;96.78;95153.41;5012402;28;20581;-82
2023/06/23 03:40:33;;;;;;;26.02;13.90;;;;;;;19.53;96.29;95149.75;5012348;28;20184;-81
2023/06/23 03:43:11;;;;;;;23.60;12.00;;;;;;;19.61;96.61;95148.47;5012053;28;20584;-83
2023/06/23 03:45:39;;;;;;;20.90;12.13;;;;;;;19.46;96.18;95111.78;5012548;28;20164;-81
2023/06/23 03:48:09;;;;;;;20.45;11.32;;;;;;;19.82;96.18;95153.63;5011773;28;20848;-80
2023/06/23 03:50:38;;;;;;;26.25;12.20;;;;;;;19.80;96.05;95128.25;5011644;28;20177;-81
2023/06/23 03:53:05;;;;;;;17.92;11.65;;;;;;;19.98;95.59;95144.59;5009497;28;20175;-81
2023/06/23 03:55:36;;;;;;;18.35;11.75;;;;;;;20.25;94.99;95163.13;5010020;28;20220;-79
2023/06/23 03:58:05;;;;;;;18.77;11.20;;;;;;;20.32;94.64;95158.31;5011687;28;20872;-82
2023/06/23 04:00:37;;;;;;;18.63;12.15;;;;;;;20.49;93.38;95158.16;5011904;28;20506;-78
2023/06/23 04:03:06;;;;;;;16.75;11.07;;;;;;;20.65;93.22;95170.47;5011815;28;20188;-79
2023/06/23 04:05:33;;;;;;;16.65;10.70;;;;;;;20.74;92.84;95162.72;5012002;28;20176;-79
2023/06/23 04:08:02;;;;;;;17.05;10.38;;;;;;;20.79;92.35;95156.56;5011566;28;20263;-78
2023/06/23 04:10:29;;;;;;;20.27;10.60;;;;;;;20.98;91.71;95173.72;5013310;28;20169;-79
2023/06/23 04:12:57;;;;;;;15.27;10.30;;;;;;;21.15;91.22;95179.59;5015347;28;20164;-79
2023/06/23 04:15:25;;;;;;;15.45;10.25;;;;;;;21.30;89.79;95184.16;5015373;28;20239;-80
2023/06/23 04:17:53;;;;;;;13.23;9.95;;;;;;;21.14;89.62;95140.50;5015915;28;20210;-82
2023/06/23 04:20:21;;;;;;;20.55;11.73;;;;;;;21.51;89.44;95188.44;5015695;28;20215;-81
2023/06/23 04:22:49;;;;;;;16.83;10.93;;;;;;;21.60;89.02;95169.91;5015761;28;20616;-79
2023/06/23 04:25:17;;;;;;;14.93;9.75;;;;;;;21.78;88.92;95174.69;5015576;28;20204;-79
2023/06/23 04:27:45;;;;;;;16.33;11.18;;;;;;;21.93;88.44;95180.00;5014727;28;20195;-82
2023/06/23 04:30:13;;;;;;;19.08;10.68;;;;;;;22.07;86.23;95189.09;5014667;28;20195;-80
2023/06/23 04:32:40;;;;;;;20.02;11.68;;;;;;;21.97;86.33;95167.66;5015310;28;20168;-79
2023/06/23 04:35:06;;;;;;;20.77;11.65;;;;;;;22.00;85.95;95153.72;5015038;28;20172;-79
2023/06/23 04:37:44;;;;;;;22.42;11.38;;;;;;;22.32;86.17;95182.00;5014208;28;20172;-80
2023/06/23 04:40:24;;;;;;;21.20;12.07;;;;;;;22.56;85.90;95188.31;5011285;28;20540;-78
2023/06/23 04:43:08;;;;;;;18.50;11.73;;;;;;;22.75;85.46;95186.59;5010899;28;20292;-79
2023/06/23 04:45:37;;;;;;;18.65;12.10;;;;;;;22.94;84.29;95184.06;5012135;28;20571;-80
2023/06/23 04:48:08;;;;;;;17.17;12.25;;;;;;;23.08;84.11;95185.03;5014662;28;20221;-79
2023/06/23 04:50:35;;;;;;;16.70;11.75;;;;;;;23.27;83.75;95185.94;5014761;28;20172;-79
2023/06/23 04:53:06;;;;;;;17.33;12.73;;;;;;;23.24;82.44;95151.59;5014720;28;20238;-79
2023/06/23 04:55:39;;;;;;;20.10;12.07;;;;;;;23.74;81.77;95192.53;5028322;28;20223;-80
2023/06/23 04:58:06;;;;;;;19.95;12.50;;;;;;;23.96;80.78;95192.00;5014317;28;20876;-80
2023/06/23 05:00:32;;;;;;;23.90;12.20;;;;;;;24.13;78.57;95183.50;5014556;28;20175;-79
2023/06/23 05:03:00;;;;;;;19.30;13.20;;;;;;;24.46;77.21;95187.13;5014509;28;20200;-80
2023/06/23 05:05:28;;;;;;;16.00;11.43;;;;;;;24.53;74.98;95185.69;5014408;28;20180;-81
2023/06/23 05:07:56;;;;;;;16.35;11.30;;;;;;;24.85;75.15;95206.50;5014159;28;20186;-80
2023/06/23 05:10:24;;;;;;;17.92;12.13;;;;;;;24.90;73.69;95192.97;5014339;28;20180;-80
2023/06/23 05:12:53;;;;;;;24.02;12.07;;;;;;;25.25;73.83;95198.94;5014026;28;20267;-80
2023/06/23 05:15:20;;;;;;;18.42;12.00;;;;;;;25.71;73.01;95218.63;5014161;28;20168;-81
2023/06/23 05:17:48;;;;;;;15.38;11.38;;;;;;;25.88;72.40;95186.50;5011526;28;20164;-80
2023/06/23 05:20:17;;;;;;;19.23;10.70;;;;;;;26.39;68.25;95222.50;5013967;28;20187;-80
2023/06/23 05:22:45;;;;;;;17.85;10.93;;;;;;;26.47;69.27;95192.88;5014832;28;20646;-79
2023/06/23 05:25:11;;;;;;;14.93;9.80;;;;;;;27.07;67.30;95230.50;5014004;28;20573;-79
2023/06/23 05:27:39;;;;;;;14.18;10.77;;;;;;;27.50;65.43;95227.34;5013980;28;20173;-79
2023/06/23 05:30:07;;;;;;;17.63;10.95;;;;;;;27.74;64.25;95233.25;5013777;28;20173;-79
2023/06/23 05:32:36;;;;;;;15.55;10.73;;;;;;;27.71;63.27;95198.69;5012681;28;20157;-79
2023/06/23 05:35:04;;;;;;;20.52;11.77;;;;;;;27.87;62.43;95215.31;5013875;28;20563;-79
2023/06/23 05:37:33;;;;;;;17.05;11.07;;;;;;;28.05;63.82;95214.28;5012442;28;20168;-79
2023/06/23 05:40:01;;;;;;;14.45;10.93;;;;;;;28.50;62.94;95226.59;5013545;28;20229;-78
2023/06/23 05:42:29;;;;;;;17.83;10.90;;;;;;;28.85;62.41;95227.50;5012585;28;20196;-79
2023/06/23 05:44:55;;;;;;;16.10;12.05;;;;;;;29.15;61.09;95211.38;5013306;28;20310;-80
2023/06/23 05:47:26;;;;;;;14.68;10.95;;;;;;;29.63;60.04;95224.78;5013456;28;20264;-79
2023/06/23 05:49:55;;;;;;;16.85;12.52;;;;;;;29.81;58.27;95230.97;5013488;28;20161;-80
2023/06/23 05:52:22;;;;;;;17.30;12.88;;;;;;;29.62;57.80;95206.91;5013416;28;20172;-80
2023/06/23 05:54:51;;;;;;;25.83;13.18;;;;;;;29.67;57.72;95216.78;5013303;28;20601;-80
2023/06/23 05:57:25;;;;;;;23.08;12.68;;;;;;;29.76;57.78;95234.66;5013183;28;20266;-80
2023/06/23 06:00:09;;;;;;;21.27;12.77;;;;;;;29.70;59.85;95221.56;5012600;28;20212;-80
2023/06/23 06:02:38;;;;;;;17.65;12.30;;;;;;;29.79;60.36;95235.94;5013038;28;20681;-80
2023/06/23 06:05:07;;;;;;;22.75;13.90;;;;;;;29.88;58.67;95232.06;5013290;28;20188;-79
2023/06/23 06:07:35;;;;;;;16.17;12.63;;;;;;;29.98;59.99;95234.47;5012952;28;20179;-79
2023/06/23 06:10:06;;;;;;;18.75;13.93;;;;;;;29.83;57.22;95234.97;5011717;28;20537;-79
2023/06/23 06:12:34;;;;;;;18.50;13.93;;;;;;;29.67;58.16;95230.34;5012890;28;20181;-79
2023/06/23 06:15:01;;;;;;;21.65;13.57;;;;;;;29.62;60.13;95225.91;5012924;28;20168;-79
2023/06/23 06:17:28;;;;;;;23.80;13.80;;;;;;;29.67;60.83;95230.34;5012761;28;20180;-80
2023/06/23 06:19:58;;;;;;;16.92;12.85;;;;;;;29.88;60.19;95225.84;5012629;28;20182;-80
2023/06/23 06:22:24;;;;;;;17.55;13.52;;;;;;;30.01;59.86;95220.22;5012800;28;20252;-80
2023/06/23 06:24:52;;;;;;;19.55;12.95;;;;;;;29.50;59.67;95199.41;5012592;28;20191;-79
2023/06/23 06:27:20;;;;;;;19.92;13.82;;;;;;;29.41;58.05;95219.53;5012961;28;20168;-79
2023/06/23 06:29:47;;;;;;;18.98;12.90;;;;;;;29.26;60.28;95212.66;5013133;28;20168;-79
2023/06/23 06:32:14;;;;;;;22.77;15.55;;;;;;;29.39;58.32;95213.66;5012293;28;20248;-79
2023/06/23 06:34:42;;;;;;;21.30;13.25;;;;;;;28.90;59.55;95169.59;5011367;28;20175;-79
2023/06/23 06:37:09;;;;;;;23.10;14.43;;;;;;;29.03;61.21;95184.13;5012888;28;21030;-80
2023/06/23 06:39:37;;;;;;;20.83;13.50;;;;;;;29.46;63.50;95208.53;5013327;28;20966;-80
2023/06/23 06:42:03;;;;;;;21.42;14.30;;;;;;;29.33;59.59;95193.97;5013263;28;20188;-79
2023/06/23 06:44:29;;;;;;;18.20;13.15;;;;;;;29.70;61.53;95210.72;5013221;28;20168;-80
2023/06/23 06:46:54;;;;;;;26.70;13.02;;;;;;;29.91;61.89;95204.28;5013118;28;20168;-80
2023/06/23 06:49:22;;;;;;;25.63;12.98;;;;;;;30.09;58.01;95202.34;5012517;28;20176;-80
2023/06/23 06:51:49;;;;;;;16.38;12.90;;;;;;;30.35;56.93;95196.78;5012128;28;20176;-81
2023/06/23 06:54:18;;;;;;;19.38;12.80;;;;;;;30.11;56.71;95174.81;5012119;28;20667;-80
2023/06/23 06:56:44;;;;;;;25.35;14.77;;;;;;;30.21;55.54;95186.13;5012412;28;21107;-80
2023/06/23 06:59:09;;;;;;;19.90;13.45;;;;;;;30.23;56.65;95177.66;5012780;28;20223;-80
2023/06/23 07:01:36;;;;;;;22.73;14.60;;;;;;;30.18;55.93;95166.97;5012275;28;20192;-81
2023/06/23 07:04:04;;;;;;;28.17;15.68;;;;;;;30.28;56.00;95163.88;5011881;28;20176;-81
2023/06/23 07:06:29;;;;;;;25.73;14.20;;;;;;;30.36;55.72;95173.91;5011892;28;20183;-81
2023/06/23 07:08:55;;;;;;;19.10;14.48;;;;;;;30.09;55.63;95166.22;5011896;28;20176;-79
2023/06/23 07:11:20;;;;;;;22.17;14.77;;;;;;;30.00;57.05;95168.97;5012046;28;20172;-81
2023/06/23 07:13:46;;;;;;;21.63;13.77;;;;;;;30.12;56.81;95160.91;5011888;28;20164;-80
2023/06/23 07:16:11;;;;;;;16.85;12.98;;;;;;;30.23;55.08;95155.91;5012406;28;20737;-80
2023/06/23 07:18:36;;;;;;;24.48;14.82;;;;;;;29.81;56.08;95158.47;5012408;28;20157;-80
2023/06/23 07:21:04;;;;;;;20.52;13.95;;;;;;;29.41;56.45;95144.38;5012612;28;20172;-80
2023/06/23 07:23:29;;;;;;;20.38;13.65;;;;;;;29.45;58.35;95149.94;5027591;28;20264;-79
2023/06/23 07:25:55;;;;;;;20.42;11.82;;;;;;;29.80;59.20;95143.31;5012677;28;20607;-80
2023/06/23 07:28:20;;;;;;;22.70;13.88;;;;;;;30.05;57.49;95147.06;5012511;28;20693;-80
2023/06/23 07:30:46;;;;;;;18.75;11.73;;;;;;;30.60;59.70;95154.28;5012697;28;20649;-81
2023/06/23 07:33:11;;;;;;;15.43;12.02;;;;;;;30.95;56.34;95152.91;5012648;28;20215;-80
2023/06/23 07:35:36;;;;;;;18.98;11.43;;;;;;;31.21;56.10;95158.16;5012256;28;20259;-80
2023/06/23 07:38:02;;;;;;;18.73;11.60;;;;;;;31.47;56.42;95152.47;5012517;28;20160;-81
2023/06/23 07:40:27;;;;;;;18.13;13.07;;;;;;;31.75;54.87;95149.94;5012431;28;20161;-81
2023/06/23 07:42:53;;;;;;;27.85;12.10;;;;;;;31.96;54.74;95155.31;5012088;28;20196;-81
2023/06/23 07:45:19;;;;;;;17.50;11.68;;;;;;;31.80;53.13;95144.28;5014126;28;20164;-81
2023/06/23 07:47:44;;;;;;;15.00;11.70;;;;;;;31.74;52.00;95153.81;5015508;28;20191;-81
2023/06/23 07:50:10;;;;;;;15.90;11.80;;;;;;;31.62;51.37;95157.28;5015542;28;20649;-81
2023/06/23 07:52:35;;;;;;;16.48;11.18;;;;;;;31.38;51.52;95149.84;5015445;28;20223;-82
2023/06/23 07:55:01;;;;;;;14.35;10.65;;;;;;;31.38;53.65;95127.25;5015681;28;20639;-78
2023/06/23 07:57:26;;;;;;;14.88;11.85;;;;;;;31.31;53.76;95148.78;5016123;28;20549;-79
2023/06/23 07:59:51;;;;;;;15.95;11.27;;;;;;;31.07;52.24;95142.09;5015991;28;20240;-82
2023/06/23 08:02:17;;;;;;;17.42;12.70;;;;;;;31.00;56.16;95139.09;5015821;28;20231;-80
2023/06/23 08:04:43;;;;;;;23.20;11.65;;;;;;;31.21;52.12;95141.84;5015279;28;20704;-80
2023/06/23 08:07:08;;;;;;;16.88;10.55;;;;;;;31.29;53.44;95143.69;5015384;28;20279;-80
2023/06/23 08:09:34;;;;;;;18.00;11.75;;;;;;;31.52;53.81;95140.56;5015616;28;20234;-81
2023/06/23 08:11:59;;;;;;;18.35;11.43;;;;;;;31.90;54.85;95146.56;5015545;28;20185;-82
2023/06/23 08:14:25;;;;;;;21.88;11.82;;;;;;;32.10;52.35;95150.31;5015205;28;20275;-81
2023/06/23 08:16:50;;;;;;;23.10;12.18;;;;;;;32.33;52.04;95145.25;5015004;28;20184;-81
2023/06/23 08:19:21;;;;;;;20.65;11.20;;;;;;;32.29;51.23;95115.13;5014984;28;20178;-82
2023/06/23 08:21:48;;;;;;;18.45;11.75;;;;;;;32.45;49.94;95139.75;5015158;28;20196;-81
2023/06/23 08:24:13;;;;;;;22.33;11.43;;;;;;;32.15;50.02;95144.66;5015844;28;21081;-82
2023/06/23 08:26:39;;;;;;;28.77;16.30;;;;;;;32.05;52.40;95132.28;5015539;28;20185;-81
2023/06/23 08:29:04;;;;;;;18.80;10.82;;;;;;;32.35;53.65;95149.19;5015067;28;20161;-79
2023/06/23 08:31:29;;;;;;;15.43;9.55;;;;;;;32.40;50.71;95134.56;5014577;28;20267;-81
2023/06/23 08:33:55;;;;;;;12.50;9.35;;;;;;;32.33;48.42;95153.41;5014401;28;20242;-79
2023/06/23 08:36:20;;;;;;;15.23;8.95;;;;;;;32.28;51.47;95140.81;5014810;28;20180;-79
2023/06/23 08:38:47;;;;;;;12.90;8.88;;;;;;;32.28;48.96;95132.63;5015191;28;20558;-80
2023/06/23 08:41:14;;;;;;;19.48;11.88;;;;;;;31.63;49.04;95122.69;5013759;28;20220;-80
2023/06/23 08:43:44;;;;;;;10.43;8.75;;;;;;;31.45;52.02;95135.66;5014628;28;20242;-81
2023/06/23 08:46:13;;;;;;;17.52;12.75;;;;;;;31.02;51.89;95095.25;5014508;28;20218;-82
2023/06/23 08:48:42;;;;;;;16.52;9.43;;;;;;;31.27;57.09;95124.16;5014664;28;20238;-80
2023/06/23 08:51:08;;;;;;;27.45;16.50;;;;;;;31.58;52.43;95125.59;5014858;28;20211;-82
2023/06/23 08:53:33;;;;;;;18.80;10.88;;;;;;;31.49;53.16;95120.22;5014161;28;20199;-80
2023/06/23 08:55:59;;;;;;;14.88;10.07;;;;;;;31.50;49.83;95124.56;5013956;28;20256;-80
2023/06/23 08:58:24;;;;;;;19.52;12.05;;;;;;;31.49;51.03;95122.97;5014306;28;20183;-79
2023/06/23 09:00:52;;;;;;;14.98;9.38;;;;;;;31.46;50.24;95093.72;5014317;28;20176;-82
2023/06/23 09:03:19;;;;;;;15.25;8.82;;;;;;;31.52;49.33;95118.78;5014400;28;20681;-83
2023/06/23 09:05:45;;;;;;;19.10;10.15;;;;;;;31.04;50.73;95121.00;5014671;28;20315;-76
2023/06/23 09:08:10;;;;;;;16.10;9.18;;;;;;;30.96;56.75;95097.34;5013874;28;20661;-78
2023/06/23 09:10:36;;;;;;;20.88;12.38;;;;;;;31.28;56.74;95116.78;5013175;28;20184;-78
2023/06/23 09:13:30;;;;;;;13.95;8.88;;;;;;;31.33;56.44;95111.91;5013974;28;20606;-81
2023/06/23 09:15:56;;;;;;;13.43;7.72;;;;;;;31.27;54.01;95090.69;5028856;28;21745;-81
2023/06/23 09:18:22;;;;;;;17.55;9.75;;;;;;;30.89;53.50;95086.22;5011196;28;20226;-81
2023/06/23 09:20:49;;;;;;;11.85;8.20;;;;;;;30.75;52.07;95089.25;5013816;28;20198;-79
2023/06/23 09:23:20;;;;;;;12.90;8.88;;;;;;;30.53;51.33;95089.56;5013621;28;20192;-80
2023/06/23 09:25:48;;;;;;;11.63;7.35;;;;;;;30.55;51.77;95103.63;5013498;28;20187;-80
2023/06/23 09:28:35;;;;;;;10.07;7.15;;;;;;;30.50;53.34;95092.13;5013271;28;20267;-81
2023/06/23 09:31:14;;;;;;;11.82;7.22;;;;;;;30.49;54.30;95099.50;5011004;28;20215;-81
2023/06/23 09:33:53;;;;;;;11.32;7.20;;;;;;;30.45;53.54;95100.47;5012071;28;20172;-83
2023/06/23 09:36:19;;;;;;;11.40;7.78;;;;;;;30.12;52.70;95052.25;5011622;28;20203;-80
2023/06/23 09:38:46;;;;;;;12.50;8.75;;;;;;;30.18;54.77;95083.56;5012164;28;20183;-81
2023/06/23 09:41:13;;;;;;;9.20;6.65;;;;;;;30.23;54.96;95094.22;5012003;28;20200;-81
2023/06/23 09:43:40;;;;;;;15.02;8.27;;;;;;;30.18;55.86;95093.63;5012952;28;20230;-81
2023/06/23 09:46:07;;;;;;;13.20;7.88;;;;;;;30.18;51.28;95082.78;5013455;28;20177;-80
2023/06/23 09:48:32;;;;;;;11.77;8.20;;;;;;;29.87;52.90;95056.69;5012169;28;20181;-79
2023/06/23 09:51:03;;;;;;;8.32;7.40;;;;;;;29.98;51.12;95071.53;5012767;28;20177;-82
2023/06/23 09:53:39;;;;;;;15.10;7.47;;;;;;;30.05;53.10;95089.22;5010927;28;20559;-81
2023/06/23 09:56:07;;;;;;;10.60;7.35;;;;;;;30.00;55.64;95088.31;5013329;28;20255;-82
2023/06/23 09:58:37;;;;;;;15.93;8.13;;;;;;;30.03;52.90;95097.69;5012494;28;20187;-81
2023/06/23 10:01:05;;;;;;;15.13;7.32;;;;;;;29.82;50.76;95054.19;5008479;28;20172;-81
2023/06/23 10:03:31;;;;;;;13.18;8.25;;;;;;;30.03;54.46;95089.53;5013268;28;20172;-81
2023/06/23 10:05:58;;;;;;;11.57;8.30;;;;;;;29.90;53.52;95066.91;5013651;28;20275;-81
2023/06/23 10:08:26;;;;;;;13.95;8.50;;;;;;;29.99;57.83;95078.56;5010955;28;20176;-82
2023/06/23 10:10:51;;;;;;;13.77;8.63;;;;;;;30.06;59.58;95078.03;5012618;28;20242;-79
2023/06/23 10:13:17;;;;;;;9.85;7.97;;;;;;;30.09;54.76;95071.16;5012754;28;20251;-85
2023/06/23 10:15:44;;;;;;;10.13;6.70;;;;;;;30.11;48.88;95074.31;5011681;28;20211;-83
2023/06/23 10:18:11;;;;;;;9.13;6.05;;;;;;;29.92;50.20;95051.09;5014038;28;20239;-87
2023/06/23 10:20:38;;;;;;;8.63;6.68;;;;;;;29.93;50.09;95062.72;5013701;28;20153;-83
2023/06/23 10:23:04;;;;;;;8.70;6.18;;;;;;;29.60;50.43;95027.28;5013233;28;20709;-88
2023/06/23 10:25:34;;;;;;;13.73;6.45;;;;;;;29.74;54.79;95051.50;5013524;28;20169;-89
2023/06/23 10:28:05;;;;;;;8.13;6.38;;;;;;;29.52;52.84;95026.22;5013425;28;20179;-86
2023/06/23 10:30:31;;;;;;;12.98;6.53;;;;;;;29.76;51.43;95055.47;5011822;28;20168;-86
2023/06/23 10:32:57;;;;;;;11.23;7.28;;;;;;;29.20;51.53;94967.91;5012910;28;20164;-83
2023/06/23 10:35:24;;;;;;;10.80;6.90;;;;;;;29.54;49.36;95023.19;5012858;28;20179;-87
2023/06/23 10:38:02;;;;;;;10.90;7.03;;;;;;;29.34;50.80;95008.38;5011709;28;20195;-89
2023/06/23 10:40:30;;;;;;;13.25;7.50;;;;;;;29.58;53.33;95054.75;5010591;28;20180;-86
2023/06/23 10:42:56;;;;;;;9.40;6.40;;;;;;;29.34;53.41;95010.28;5012519;28;20196;-89
2023/06/23 10:45:22;;;;;;;12.05;6.90;;;;;;;29.23;57.53;94996.31;5011331;28;20191;-89
2023/06/23 10:47:48;;;;;;;11.18;6.40;;;;;;;29.32;58.21;95002.47;5012728;28;20235;-89
2023/06/23 10:50:14;;;;;;;8.60;7.28;;;;;;;29.28;56.86;94986.06;5011575;28;20187;-87
2023/06/23 10:52:40;;;;;;;11.10;7.45;;;;;;;29.39;51.70;94983.03;5009688;28;20262;-87
2023/06/23 10:55:40;;;;;;;10.60;7.22;;;;;;;29.56;52.12;95034.50;5012305;28;20711;-85
2023/06/23 10:58:17;;;;;;;14.98;7.28;;;;;;;29.48;53.24;95025.28;5025879;28;20175;-88
2023/06/23 11:00:46;;;;;;;18.70;7.43;;;;;;;29.48;50.99;95024.50;5011743;28;20175;-88
2023/06/23 11:03:36;;;;;;;10.77;7.45;;;;;;;29.35;55.06;94996.41;5011422;28;20682;-89
2023/06/23 11:06:07;;;;;;;15.13;7.07;;;;;;;29.40;52.56;95012.56;5012270;28;20183;-87
2023/06/23 11:08:37;;;;;;;11.18;6.75;;;;;;;29.36;53.68;95000.75;5010842;28;20187;-86
2023/06/23 11:11:53;;;;;;;14.43;7.30;;;;;;;29.38;50.92;95020.22;5012202;28;20769;-86
2023/06/23 11:14:19;;;;;;;22.95;7.28;;;;;;;29.32;52.78;95013.31;4997612;28;20173;-87
2023/06/23 11:16:49;;;;;;;10.02;6.80;;;;;;;29.21;53.76;94995.84;5012557;28;20180;-87
2023/06/23 11:19:26;;;;;;;12.85;8.13;;;;;;;29.30;52.81;95004.75;5011935;28;20238;-87
2023/06/23 11:22:07;;;;;;;13.43;6.68;;;;;;;29.33;52.95;95003.28;5009648;28;20704;-87
2023/06/23 11:24:33;;;;;;;11.05;7.80;;;;;;;29.13;51.84;94961.41;5010601;28;20183;-87
2023/06/23 11:27:02;;;;;;;11.90;7.13;;;;;;;29.20;52.73;94958.97;5010763;28;20172;-83